createdAt,value
2023-05-12T00:02:09.216Z,18.04
2023-05-12T00:04:40.116Z,18.62
2023-05-12T00:07:10.388Z,19.05
2023-05-12T00:09:42.965Z,17.57
2023-05-12T00:12:13.259Z,17.90
2023-05-12T00:14:43.985Z,18.82
2023-05-12T00:17:15.360Z,17.98
2023-05-12T00:19:45.711Z,18.78
2023-05-12T00:22:16.895Z,17.90
2023-05-12T00:24:47.051Z,18.48
2023-05-12T00:27:17.433Z,19.04
2023-05-12T00:29:47.719Z,18.91
2023-05-12T00:32:18.165Z,19.09
2023-05-12T00:34:48.736Z,19.23
2023-05-12T00:37:18.914Z,19.15
2023-05-12T00:39:49.109Z,19.22
2023-05-12T00:42:19.788Z,18.06
2023-05-12T00:44:50.153Z,19.02
2023-05-12T00:47:21.936Z,19.51
2023-05-12T00:49:52.571Z,19.79
2023-05-12T00:52:23.057Z,19.89
2023-05-12T00:54:53.704Z,18.65
2023-05-12T00:57:24.526Z,20.02
2023-05-12T00:59:54.914Z,18.40
2023-05-12T01:02:25.737Z,18.08
2023-05-12T01:04:56.442Z,17.95
2023-05-12T01:07:27.507Z,18.34
2023-05-12T01:09:58.073Z,19.04
2023-05-12T01:12:33.733Z,17.96
2023-05-12T01:15:06.191Z,18.20
2023-05-12T01:17:36.620Z,18.90
2023-05-12T01:20:09.394Z,18.09
2023-05-12T01:22:40.184Z,18.88
2023-05-12T01:25:13.130Z,18.96
2023-05-12T01:27:43.882Z,18.38
2023-05-12T01:30:17.792Z,18.81
2023-05-12T01:32:48.345Z,19.26
2023-05-12T01:35:18.686Z,19.03
2023-05-12T01:37:56.574Z,18.85
2023-05-12T01:40:27.221Z,18.90
2023-05-12T01:42:58.658Z,18.77
2023-05-12T01:45:32.727Z,19.06
2023-05-12T01:48:03.323Z,19.31
2023-05-12T01:50:33.675Z,19.15
2023-05-12T01:53:05.248Z,18.93
2023-05-12T01:55:36.044Z,18.91
2023-05-12T01:58:06.299Z,19.33
2023-05-12T02:00:37.716Z,19.32
2023-05-12T02:03:16.036Z,18.43
2023-05-12T02:05:46.497Z,18.36
2023-05-12T02:08:16.644Z,18.81
2023-05-12T02:10:47.274Z,19.28
2023-05-12T02:13:17.599Z,19.63
2023-05-12T02:15:48.555Z,19.90
2023-05-12T02:18:19.816Z,19.98
2023-05-12T02:20:50.628Z,19.55
2023-05-12T02:23:21.146Z,19.50
2023-05-12T02:25:51.669Z,19.23
2023-05-12T02:28:22.151Z,19.07
2023-05-12T02:30:54.403Z,19.27
2023-05-12T02:33:25.000Z,19.11
2023-05-12T02:35:55.820Z,19.05
2023-05-12T02:38:27.309Z,18.98
2023-05-12T02:40:57.859Z,19.13
2023-05-12T02:43:28.640Z,19.44
2023-05-12T02:45:58.993Z,19.26
2023-05-12T02:48:29.811Z,18.85
2023-05-12T02:51:00.523Z,19.07
2023-05-12T02:53:31.433Z,18.77
2023-05-12T02:56:01.770Z,18.32
2023-05-12T02:58:32.184Z,18.77
2023-05-12T03:01:10.129Z,18.72
2023-05-12T03:03:43.660Z,18.50
2023-05-12T03:06:13.998Z,18.90
2023-05-12T03:08:44.300Z,18.84
2023-05-12T03:11:14.601Z,18.78
2023-05-12T03:13:45.744Z,18.51
2023-05-12T03:16:19.602Z,18.61
2023-05-12T03:18:51.421Z,18.22
2023-05-12T03:21:21.614Z,18.31
2023-05-12T03:23:52.063Z,18.64
2023-05-12T03:26:22.540Z,18.73
2023-05-12T03:28:52.995Z,18.71
2023-05-12T03:31:24.075Z,18.33
2023-05-12T03:33:55.032Z,18.55
2023-05-12T03:36:25.918Z,18.74
2023-05-12T03:38:56.447Z,18.58
2023-05-12T03:41:26.585Z,17.68
2023-05-12T03:43:57.169Z,17.51
2023-05-12T03:46:27.845Z,17.47
2023-05-12T03:48:58.314Z,17.60
2023-05-12T03:51:29.603Z,17.81
2023-05-12T03:53:59.980Z,17.49
2023-05-12T03:56:30.908Z,17.22
2023-05-12T03:59:01.075Z,17.52
2023-05-12T04:01:31.471Z,17.41
2023-05-12T04:04:03.974Z,17.27
2023-05-12T04:06:34.608Z,17.10
2023-05-12T04:09:06.272Z,17.10
2023-05-12T04:11:36.478Z,17.10
2023-05-12T04:14:06.813Z,16.97
2023-05-12T04:16:42.091Z,16.96
2023-05-12T04:19:12.422Z,16.62
2023-05-12T04:21:42.564Z,16.24
2023-05-12T04:24:12.733Z,16.03
2023-05-12T04:26:43.082Z,15.89
2023-05-12T04:29:14.745Z,15.62
2023-05-12T04:31:45.117Z,15.44
2023-05-12T04:34:15.420Z,15.56
2023-05-12T04:36:45.850Z,15.44
2023-05-12T04:39:16.343Z,15.05
2023-05-12T04:41:46.688Z,15.14
2023-05-12T04:44:17.778Z,14.85
2023-05-12T04:46:48.327Z,14.78
2023-05-12T04:49:18.633Z,14.71
2023-05-12T04:51:50.681Z,14.65
2023-05-12T04:54:21.055Z,14.58
2023-05-12T04:56:51.426Z,14.51
2023-05-12T04:59:22.090Z,14.35
2023-05-12T05:01:54.608Z,14.39
2023-05-12T05:04:25.402Z,14.32
2023-05-12T05:06:57.354Z,13.91
2023-05-12T05:09:30.407Z,14.11
2023-05-12T05:12:03.046Z,13.94
2023-05-12T05:14:33.899Z,13.71
2023-05-12T05:17:05.410Z,13.70
2023-05-12T05:19:50.968Z,13.65
2023-05-12T05:22:26.261Z,13.58
2023-05-12T05:24:56.753Z,13.69
2023-05-12T05:27:27.071Z,13.60
2023-05-12T05:29:57.522Z,13.82
2023-05-12T05:32:29.362Z,13.71
2023-05-12T05:35:02.678Z,13.78
2023-05-12T05:37:35.557Z,13.67
2023-05-12T05:40:06.613Z,13.59
2023-05-12T05:42:37.117Z,13.38
2023-05-12T05:45:07.973Z,13.36
2023-05-12T05:47:39.047Z,13.48
2023-05-12T05:50:10.726Z,13.50
2023-05-12T05:52:43.673Z,13.49
2023-05-12T05:55:14.413Z,13.25
2023-05-12T05:57:44.893Z,13.00
2023-05-12T06:00:15.853Z,12.91
2023-05-12T06:02:50.192Z,13.01
2023-05-12T06:05:24.377Z,12.97
2023-05-12T06:07:54.751Z,12.82
2023-05-12T06:10:25.129Z,12.53
2023-05-12T06:12:55.442Z,12.33
2023-05-12T06:15:25.785Z,12.14
2023-05-12T06:17:56.165Z,12.34
2023-05-12T06:20:30.681Z,12.33
2023-05-12T06:23:02.378Z,12.63
2023-05-12T06:25:34.742Z,12.55
2023-05-12T06:28:07.222Z,12.59
2023-05-12T06:30:37.826Z,12.71
2023-05-12T06:33:08.964Z,12.70
2023-05-12T06:35:42.128Z,12.66
2023-05-12T06:38:13.647Z,12.53
2023-05-12T06:40:46.497Z,12.57
2023-05-12T06:43:17.178Z,12.22
2023-05-12T06:45:48.398Z,11.99
2023-05-12T06:48:18.601Z,11.99
2023-05-12T06:50:49.744Z,11.97
2023-05-12T06:53:22.846Z,11.46
2023-05-12T06:55:57.160Z,11.75
2023-05-12T06:58:27.765Z,11.83
2023-05-12T07:00:58.008Z,11.80
2023-05-12T07:03:28.427Z,11.68
2023-05-12T07:05:58.839Z,11.14
2023-05-12T07:08:29.308Z,11.19
2023-05-12T07:11:01.400Z,11.26
2023-05-12T07:13:31.784Z,11.13
2023-05-12T07:16:02.789Z,11.08
2023-05-12T07:18:52.130Z,11.25
2023-05-12T07:21:35.437Z,11.34
2023-05-12T07:24:07.770Z,11.54
2023-05-12T07:26:38.136Z,11.25
2023-05-12T07:29:09.105Z,11.27
2023-05-12T07:31:40.127Z,11.50
2023-05-12T07:34:10.770Z,11.70
2023-05-12T07:36:41.241Z,11.28
2023-05-12T07:39:11.513Z,10.69
2023-05-12T07:41:41.868Z,10.37
2023-05-12T07:44:12.251Z,10.29
2023-05-12T07:46:42.772Z,10.46
2023-05-12T07:49:13.116Z,10.69
2023-05-12T07:51:43.503Z,10.68
2023-05-12T07:54:13.832Z,10.62
2023-05-12T07:56:44.218Z,10.33
2023-05-12T07:59:15.814Z,10.31
2023-05-12T08:01:46.131Z,10.53
2023-05-12T08:04:16.747Z,10.49
2023-05-12T08:06:47.075Z,10.33
2023-05-12T08:09:17.454Z,10.23
2023-05-12T08:11:49.414Z,10.17
2023-05-12T08:14:21.624Z,9.98
2023-05-12T08:16:55.004Z,10.11
2023-05-12T08:19:25.475Z,10.09
2023-05-12T08:21:55.594Z,10.05
2023-05-12T08:24:26.527Z,10.13
2023-05-12T08:26:56.874Z,10.05
2023-05-12T08:29:27.211Z,10.02
2023-05-12T08:31:57.530Z,10.06
2023-05-12T08:34:27.876Z,10.09
2023-05-12T08:36:58.051Z,9.80
2023-05-12T08:39:32.354Z,9.72
2023-05-12T08:42:12.112Z,9.67
2023-05-12T08:44:42.574Z,9.63
2023-05-12T08:47:14.741Z,9.69
2023-05-12T08:49:45.151Z,9.64
2023-05-12T08:52:15.646Z,9.50
2023-05-12T08:54:55.575Z,9.66
2023-05-12T08:57:28.716Z,9.32
2023-05-12T09:00:01.442Z,9.33
2023-05-12T09:02:51.455Z,9.31
2023-05-12T09:05:24.308Z,9.25
2023-05-12T09:07:55.294Z,9.26
2023-05-12T09:10:34.930Z,9.25
2023-05-12T09:13:07.148Z,9.15
2023-05-12T09:15:38.805Z,9.36
2023-05-12T09:18:09.223Z,9.39
2023-05-12T09:20:39.357Z,9.60
2023-05-12T09:23:16.421Z,9.56
2023-05-12T09:25:48.391Z,9.22
2023-05-12T09:28:18.755Z,9.04
2023-05-12T09:30:49.044Z,9.09
2023-05-12T09:33:19.210Z,8.93
2023-05-12T09:35:49.555Z,9.12
2023-05-12T09:38:19.802Z,9.16
2023-05-12T09:40:50.465Z,8.92
2023-05-12T09:43:20.726Z,8.71
2023-05-12T09:45:52.181Z,8.72
2023-05-12T09:48:24.438Z,8.71
2023-05-12T09:50:56.345Z,8.60
2023-05-12T09:53:29.425Z,8.65
2023-05-12T09:55:59.786Z,8.67
2023-05-12T09:58:30.101Z,8.62
2023-05-12T10:01:20.808Z,8.79
2023-05-12T10:03:58.339Z,8.38
2023-05-12T10:06:32.524Z,8.40
2023-05-12T10:09:02.669Z,8.43
2023-05-12T10:11:53.804Z,8.37
2023-05-12T10:14:37.374Z,8.51
2023-05-12T10:17:11.456Z,8.29
2023-05-12T10:19:43.675Z,8.46
2023-05-12T10:22:14.042Z,8.30
2023-05-12T10:24:44.488Z,8.35
2023-05-12T10:27:14.646Z,8.09
2023-05-12T10:29:44.905Z,8.09
2023-05-12T10:32:16.088Z,8.11
2023-05-12T10:34:46.838Z,8.10
2023-05-12T10:37:17.195Z,8.20
2023-05-12T10:39:51.117Z,8.05
2023-05-12T10:42:28.268Z,8.02
2023-05-12T10:44:58.576Z,7.91
2023-05-12T10:47:38.170Z,7.90
2023-05-12T10:50:09.305Z,7.95
2023-05-12T10:52:45.015Z,8.16
2023-05-12T10:55:15.998Z,8.15
2023-05-12T10:57:53.427Z,8.30
2023-05-12T11:00:27.946Z,8.37
2023-05-12T11:03:04.102Z,8.05
2023-05-12T11:05:38.795Z,8.25
2023-05-12T11:08:09.669Z,8.17
2023-05-12T11:10:42.969Z,8.17
2023-05-12T11:13:13.193Z,7.79
2023-05-12T11:15:45.904Z,8.11
2023-05-12T11:18:22.081Z,8.11
2023-05-12T11:20:52.905Z,8.25
2023-05-12T11:23:27.016Z,8.36
2023-05-12T11:25:57.961Z,8.33
2023-05-12T11:28:28.588Z,8.19
2023-05-12T11:30:58.713Z,8.16
2023-05-12T11:33:28.875Z,8.11
2023-05-12T11:35:59.188Z,7.99
2023-05-12T11:38:31.445Z,7.71
2023-05-12T11:41:01.811Z,7.44
2023-05-12T11:43:32.019Z,7.72
2023-05-12T11:46:02.779Z,7.50
2023-05-12T11:48:36.387Z,7.59
2023-05-12T11:51:06.894Z,7.65
2023-05-12T11:53:41.901Z,7.66
2023-05-12T11:56:13.103Z,7.67
2023-05-12T11:58:43.359Z,7.16
2023-05-12T12:01:14.132Z,7.38
2023-05-12T12:03:50.309Z,7.45
2023-05-12T12:06:21.459Z,7.35
2023-05-12T12:09:03.731Z,7.17
2023-05-12T12:11:36.073Z,7.05
2023-05-12T12:14:06.487Z,7.17
2023-05-12T12:16:36.696Z,7.18
2023-05-12T12:19:10.110Z,7.04
2023-05-12T12:21:40.557Z,7.03
2023-05-12T12:24:10.843Z,7.25
2023-05-12T12:26:41.052Z,7.18
2023-05-12T12:29:11.338Z,7.20
2023-05-12T12:31:41.805Z,7.12
2023-05-12T12:34:12.089Z,6.75
2023-05-12T12:36:42.711Z,6.76
2023-05-12T12:39:13.379Z,6.91
2023-05-12T12:41:44.997Z,7.09
2023-05-12T12:44:15.426Z,7.09
2023-05-12T12:46:45.871Z,6.75
2023-05-12T12:49:16.579Z,6.57
2023-05-12T12:51:47.438Z,6.80
2023-05-12T12:54:17.627Z,7.01
2023-05-12T12:56:48.748Z,6.94
2023-05-12T12:59:19.525Z,7.05
2023-05-12T13:01:50.339Z,7.01
2023-05-12T13:04:24.174Z,6.87
2023-05-12T13:06:54.363Z,6.86
2023-05-12T13:09:24.967Z,6.84
2023-05-12T13:11:55.304Z,6.70
2023-05-12T13:14:26.436Z,6.83
2023-05-12T13:16:56.620Z,6.73
2023-05-12T13:19:28.943Z,6.93
2023-05-12T13:21:59.279Z,6.97
2023-05-12T13:24:29.868Z,6.76
2023-05-12T13:27:00.393Z,6.40
2023-05-12T13:29:31.306Z,6.42
2023-05-12T13:32:01.702Z,6.44
2023-05-12T13:34:31.838Z,6.25
2023-05-12T13:37:02.371Z,6.17
2023-05-12T13:39:33.452Z,6.24
2023-05-12T13:42:04.716Z,6.50
2023-05-12T13:44:35.094Z,6.43
2023-05-12T13:47:05.460Z,6.38
2023-05-12T13:49:36.361Z,6.27
2023-05-12T13:52:07.102Z,6.38
2023-05-12T13:54:37.455Z,6.27
2023-05-12T13:57:07.724Z,6.13
2023-05-12T13:59:37.838Z,6.27
2023-05-12T14:02:10.961Z,6.19
2023-05-12T14:04:41.449Z,6.28
2023-05-12T14:07:11.986Z,6.26
2023-05-12T14:09:42.661Z,6.37
2023-05-12T14:12:12.982Z,6.22
2023-05-12T14:14:48.573Z,6.17
2023-05-12T14:17:20.092Z,5.92
2023-05-12T14:19:51.044Z,5.82
2023-05-12T14:22:26.579Z,5.94
2023-05-12T14:24:57.268Z,6.21
2023-05-12T14:27:27.454Z,6.19
2023-05-12T14:29:57.847Z,6.16
2023-05-12T14:32:28.535Z,6.16
2023-05-12T14:34:58.947Z,6.13
2023-05-12T14:37:29.267Z,6.07
2023-05-12T14:39:59.623Z,6.25
2023-05-12T14:42:31.933Z,6.24
2023-05-12T14:45:02.344Z,6.25
2023-05-12T14:47:33.326Z,6.11
2023-05-12T14:50:03.807Z,6.11
2023-05-12T14:52:39.650Z,6.03
2023-05-12T14:55:13.503Z,5.96
2023-05-12T14:57:43.927Z,5.73
2023-05-12T15:00:14.796Z,5.86
2023-05-12T15:02:45.884Z,5.81
2023-05-12T15:05:17.679Z,5.93
2023-05-12T15:07:48.436Z,5.85
2023-05-12T15:10:19.051Z,5.80
2023-05-12T15:12:49.475Z,5.44
2023-05-12T15:15:20.259Z,5.73
2023-05-12T15:17:50.977Z,5.66
2023-05-12T15:20:22.155Z,5.43
2023-05-12T15:22:53.716Z,5.41
2023-05-12T15:25:24.066Z,5.49
2023-05-12T15:27:54.748Z,5.47
2023-05-12T15:30:25.424Z,5.56
2023-05-12T15:32:55.760Z,5.73
2023-05-12T15:35:26.411Z,5.59
2023-05-12T15:37:56.969Z,5.59
2023-05-12T15:40:28.216Z,5.60
2023-05-12T15:42:59.416Z,5.50
2023-05-12T15:45:32.798Z,5.41
2023-05-12T15:48:03.162Z,5.53
2023-05-12T15:50:33.806Z,5.58
2023-05-12T15:53:04.176Z,5.58
2023-05-12T15:55:34.905Z,5.70
2023-05-12T15:58:05.666Z,5.79
2023-05-12T16:00:35.995Z,5.72
2023-05-12T16:03:06.327Z,5.71
2023-05-12T16:05:39.362Z,5.58
2023-05-12T16:08:10.603Z,5.64
2023-05-12T16:10:41.320Z,5.52
2023-05-12T16:13:11.677Z,5.77
2023-05-12T16:15:42.028Z,5.75
2023-05-12T16:18:12.949Z,5.69
2023-05-12T16:20:45.901Z,5.68
2023-05-12T16:23:16.253Z,5.73
2023-05-12T16:25:47.149Z,5.43
2023-05-12T16:28:17.873Z,5.61
2023-05-12T16:30:48.331Z,5.70
2023-05-12T16:33:18.816Z,5.54
2023-05-12T16:35:49.025Z,5.42
2023-05-12T16:38:19.595Z,5.69
2023-05-12T16:40:50.801Z,5.67
2023-05-12T16:43:21.091Z,5.74
2023-05-12T16:45:59.761Z,5.66
2023-05-12T16:48:35.643Z,5.60
2023-05-12T16:51:07.595Z,5.49
2023-05-12T16:53:38.063Z,5.62
2023-05-12T16:56:08.802Z,5.60
2023-05-12T16:58:38.973Z,5.52
2023-05-12T17:01:09.747Z,5.50
2023-05-12T17:03:40.558Z,5.43
2023-05-12T17:06:11.142Z,5.41
2023-05-12T17:08:41.476Z,5.36
2023-05-12T17:11:11.738Z,5.42
2023-05-12T17:13:41.916Z,5.40
2023-05-12T17:16:11.998Z,5.18
2023-05-12T17:21:16.785Z,5.22
2023-05-12T17:23:47.212Z,5.29
2023-05-12T17:26:17.772Z,5.31
2023-05-12T17:28:48.444Z,5.10
2023-05-12T17:31:19.183Z,5.14
2023-05-12T17:33:49.931Z,5.00
2023-05-12T17:36:20.332Z,5.15
2023-05-12T17:38:52.030Z,5.19
2023-05-12T17:41:22.572Z,5.07
2023-05-12T17:43:53.807Z,4.92
2023-05-12T17:46:24.532Z,5.00
2023-05-12T17:48:54.777Z,5.05
2023-05-12T17:51:25.536Z,4.80
2023-05-12T17:53:55.813Z,5.12
2023-05-12T17:56:26.225Z,4.99
2023-05-12T17:58:57.032Z,5.05
2023-05-12T18:01:28.033Z,5.34
2023-05-12T18:03:58.461Z,5.35
2023-05-12T18:06:28.911Z,5.22
2023-05-12T18:08:59.258Z,5.02
2023-05-12T18:11:30.687Z,5.08
2023-05-12T18:14:03.377Z,5.18
2023-05-12T18:16:34.715Z,5.25
2023-05-12T18:19:05.462Z,4.87
2023-05-12T18:21:37.851Z,4.85
2023-05-12T18:24:08.387Z,5.06
2023-05-12T18:26:38.472Z,5.00
2023-05-12T18:29:08.870Z,5.04
2023-05-12T18:31:39.561Z,5.02
2023-05-12T18:34:09.990Z,4.91
2023-05-12T18:36:40.648Z,5.06
2023-05-12T18:39:12.000Z,5.09
2023-05-12T18:41:42.370Z,4.86
2023-05-12T18:44:13.073Z,4.97
2023-05-12T18:46:43.497Z,5.00
2023-05-12T18:49:13.695Z,4.93
2023-05-12T18:51:44.067Z,4.65
2023-05-12T18:54:14.464Z,4.77
2023-05-12T18:56:45.140Z,4.87
2023-05-12T18:59:15.745Z,4.70
2023-05-12T19:01:46.303Z,4.49
2023-05-12T19:04:17.628Z,4.62
2023-05-12T19:06:48.202Z,4.61
2023-05-12T19:09:18.680Z,4.71
2023-05-12T19:11:49.501Z,4.84
2023-05-12T19:14:21.219Z,4.83
2023-05-12T19:16:51.924Z,4.94
2023-05-12T19:19:22.691Z,4.84
2023-05-12T19:21:54.904Z,4.79
2023-05-12T19:24:26.528Z,4.93
2023-05-12T19:26:57.242Z,4.91
2023-05-12T19:29:29.276Z,4.86
2023-05-12T19:32:15.686Z,5.05
2023-05-12T19:34:59.695Z,5.03
2023-05-12T19:37:31.275Z,4.84
2023-05-12T19:40:01.797Z,4.80
2023-05-12T19:42:34.032Z,4.84
2023-05-12T19:45:04.486Z,4.89
2023-05-12T19:47:35.648Z,4.86
2023-05-12T19:50:06.254Z,5.01
2023-05-12T19:52:36.693Z,4.96
2023-05-12T19:55:07.943Z,5.05
2023-05-12T19:57:38.964Z,5.05
2023-05-12T20:00:10.058Z,5.21
2023-05-12T20:02:43.071Z,5.28
2023-05-12T20:05:13.896Z,5.41
2023-05-12T20:07:44.035Z,5.54
2023-05-12T20:10:14.569Z,5.75
2023-05-12T20:12:44.885Z,5.82
2023-05-12T20:15:15.566Z,5.95
2023-05-12T20:17:48.746Z,6.05
2023-05-12T20:20:19.240Z,6.09
2023-05-12T20:22:50.426Z,6.16
2023-05-12T20:25:21.308Z,6.12
2023-05-12T20:27:52.044Z,6.26
2023-05-12T20:30:22.380Z,6.35
2023-05-12T20:32:52.775Z,6.67
2023-05-12T20:35:23.542Z,7.80
2023-05-12T20:37:54.036Z,9.51
2023-05-12T20:40:24.984Z,10.94
2023-05-12T20:42:55.504Z,11.59
2023-05-12T20:45:26.009Z,12.84
2023-05-12T20:47:56.784Z,12.04
2023-05-12T20:50:28.769Z,11.66
2023-05-12T20:53:08.834Z,12.61
2023-05-12T20:55:39.324Z,12.93
2023-05-12T20:58:09.868Z,12.74
2023-05-12T21:00:40.017Z,13.10
2023-05-12T21:03:15.712Z,12.90
2023-05-12T21:05:49.469Z,12.96
2023-05-12T21:08:19.980Z,12.96
2023-05-12T21:10:50.294Z,12.90
2023-05-12T21:13:21.033Z,13.15
2023-05-12T21:15:51.494Z,13.15
2023-05-12T21:18:22.198Z,13.18
2023-05-12T21:20:52.505Z,13.30
2023-05-12T21:23:23.661Z,13.42
2023-05-12T21:25:57.410Z,13.08
2023-05-12T21:28:28.281Z,13.98
2023-05-12T21:30:58.703Z,14.33
2023-05-12T21:33:29.335Z,14.17
2023-05-12T21:35:59.659Z,14.16
2023-05-12T21:38:29.914Z,13.75
2023-05-12T21:41:00.316Z,14.08
2023-05-12T21:43:30.913Z,15.13
2023-05-12T21:46:05.138Z,14.92
2023-05-12T21:48:35.859Z,15.34
2023-05-12T21:51:06.333Z,14.97
2023-05-12T21:53:36.793Z,14.80
2023-05-12T21:56:07.520Z,15.21
2023-05-12T21:58:38.443Z,15.57
2023-05-12T22:01:09.159Z,15.40
2023-05-12T22:03:39.717Z,16.26
2023-05-12T22:06:10.199Z,16.15
2023-05-12T22:08:40.651Z,15.97
2023-05-12T22:11:11.428Z,15.89
2023-05-12T22:13:43.766Z,16.35
2023-05-12T22:16:14.334Z,15.98
2023-05-12T22:18:47.627Z,16.07
2023-05-12T22:21:18.105Z,16.73
2023-05-12T22:23:49.107Z,15.71
2023-05-12T22:26:19.536Z,15.75
2023-05-12T22:28:50.053Z,16.23
2023-05-12T22:31:20.426Z,16.23
2023-05-12T22:33:51.107Z,16.41
2023-05-12T22:36:21.442Z,15.72
2023-05-12T22:38:51.990Z,16.97
2023-05-12T22:41:22.347Z,17.80
2023-05-12T22:43:53.128Z,17.24
2023-05-12T22:46:23.596Z,16.33
2023-05-12T22:48:54.118Z,16.63
2023-05-12T22:51:24.754Z,16.78
2023-05-12T22:53:56.154Z,16.92
2023-05-12T22:56:26.539Z,17.03
2023-05-12T22:58:56.706Z,17.70
2023-05-12T23:01:27.236Z,17.63
2023-05-12T23:03:57.772Z,17.81
2023-05-12T23:06:28.152Z,17.12
2023-05-12T23:08:58.883Z,18.05
2023-05-12T23:11:29.098Z,17.92
2023-05-12T23:13:59.622Z,18.24
2023-05-12T23:16:30.197Z,17.93
2023-05-12T23:19:00.552Z,18.33
2023-05-12T23:21:30.878Z,17.50
2023-05-12T23:24:01.639Z,18.47
2023-05-12T23:26:32.035Z,18.28
2023-05-12T23:29:02.557Z,18.47
2023-05-12T23:31:32.803Z,18.33
2023-05-12T23:34:03.372Z,18.38
2023-05-12T23:36:33.730Z,18.76
2023-05-12T23:39:04.197Z,19.44
2023-05-12T23:41:35.427Z,18.63
2023-05-12T23:44:06.103Z,19.00
2023-05-12T23:46:36.672Z,19.34
2023-05-12T23:49:07.728Z,20.27
2023-05-12T23:51:37.934Z,20.92
2023-05-12T23:54:08.694Z,20.10
2023-05-12T23:56:39.002Z,21.12
2023-05-12T23:59:09.478Z,19.91
